createdAt,value
2019-05-09T00:02:30.332Z,13.10
2019-05-09T00:05:00.298Z,13.10
2019-05-09T00:07:30.151Z,13.10
2019-05-09T00:10:00.008Z,13.10
2019-05-09T00:12:30.224Z,13.10
2019-05-09T00:15:00.212Z,13.20
2019-05-09T00:17:30.029Z,13.20
2019-05-09T00:20:03.545Z,13.20
2019-05-09T00:22:33.465Z,13.20
2019-05-09T00:25:04.437Z,13.20
2019-05-09T00:27:34.264Z,13.20
2019-05-09T00:30:05.486Z,13.20
2019-05-09T00:32:39.977Z,13.20
2019-05-09T00:35:14.168Z,13.20
2019-05-09T00:38:00.904Z,13.20
2019-05-09T00:40:30.716Z,13.20
2019-05-09T00:43:00.586Z,13.20
2019-05-09T00:45:40.751Z,13.20
2019-05-09T00:48:14.060Z,13.20
2019-05-09T00:50:43.832Z,13.10
2019-05-09T00:53:13.863Z,13.10
2019-05-09T00:55:43.793Z,13.10
2019-05-09T00:58:13.712Z,13.10
2019-05-09T01:00:44.053Z,13.10
2019-05-09T01:03:14.342Z,13.10
2019-05-09T01:05:47.332Z,13.10
2019-05-09T01:08:15.998Z,13.10
2019-05-09T01:10:45.863Z,13.10
2019-05-09T01:13:15.713Z,13.10
2019-05-09T01:15:45.527Z,13.10
2019-05-09T01:18:15.460Z,13.20
2019-05-09T01:20:45.417Z,13.20
2019-05-09T01:23:15.231Z,13.10
2019-05-09T01:25:45.046Z,13.10
2019-05-09T01:28:14.962Z,13.10
2019-05-09T01:30:44.761Z,13.10
2019-05-09T01:33:33.150Z,13.10
2019-05-09T01:36:03.749Z,13.00
2019-05-09T01:38:34.079Z,13.00
2019-05-09T01:41:04.241Z,13.00
2019-05-09T01:43:34.131Z,13.00
2019-05-09T01:46:04.182Z,13.00
2019-05-09T01:48:34.974Z,13.00
2019-05-09T01:51:04.874Z,13.00
2019-05-09T01:53:36.449Z,13.00
2019-05-09T01:56:06.349Z,13.00
2019-05-09T01:58:36.164Z,13.00
2019-05-09T02:01:07.706Z,13.00
2019-05-09T02:03:37.574Z,13.00
2019-05-09T02:06:07.570Z,12.90
2019-05-09T02:08:37.520Z,13.00
2019-05-09T02:11:07.449Z,13.00
2019-05-09T02:13:37.267Z,13.00
2019-05-09T02:16:09.793Z,13.00
2019-05-09T02:18:41.350Z,13.00
2019-05-09T02:21:14.243Z,13.00
2019-05-09T02:23:43.238Z,12.90
2019-05-09T02:26:13.719Z,12.90
2019-05-09T02:28:44.724Z,12.90
2019-05-09T02:31:16.325Z,12.90
2019-05-09T02:33:46.240Z,12.90
2019-05-09T02:36:18.950Z,12.90
2019-05-09T02:38:48.788Z,12.90
2019-05-09T02:41:19.918Z,12.90
2019-05-09T02:43:50.010Z,12.90
2019-05-09T02:46:25.078Z,12.90
2019-05-09T02:48:54.890Z,12.90
2019-05-09T02:51:24.819Z,12.80
2019-05-09T02:53:54.707Z,12.80
2019-05-09T02:56:24.660Z,12.80
2019-05-09T02:58:58.952Z,12.80
2019-05-09T03:01:32.194Z,12.80
2019-05-09T03:04:02.130Z,12.80
2019-05-09T03:06:31.978Z,12.70
2019-05-09T03:09:01.965Z,12.70
2019-05-09T03:11:32.047Z,12.70
2019-05-09T03:14:01.958Z,12.60
2019-05-09T03:16:31.773Z,12.60
2019-05-09T03:19:01.632Z,12.60
2019-05-09T03:21:33.925Z,12.60
2019-05-09T03:24:03.953Z,12.60
2019-05-09T03:26:38.612Z,12.50
2019-05-09T03:29:09.341Z,12.50
2019-05-09T03:31:42.318Z,12.50
2019-05-09T03:34:12.178Z,12.60
2019-05-09T03:36:42.050Z,12.50
2019-05-09T03:39:11.862Z,12.60
2019-05-09T03:41:41.670Z,12.50
2019-05-09T03:44:11.660Z,12.60
2019-05-09T03:46:49.075Z,12.60
2019-05-09T03:49:20.508Z,12.60
2019-05-09T03:51:50.400Z,12.60
2019-05-09T03:54:21.209Z,12.60
2019-05-09T03:56:52.773Z,12.60
2019-05-09T03:59:22.625Z,12.60
2019-05-09T04:01:52.658Z,12.60
2019-05-09T04:04:22.452Z,12.50
2019-05-09T04:06:52.278Z,12.60
2019-05-09T04:09:22.186Z,12.60
2019-05-09T04:11:51.988Z,12.60
2019-05-09T04:14:23.452Z,12.60
2019-05-09T04:16:53.360Z,12.60
2019-05-09T04:19:23.233Z,12.60
2019-05-09T04:21:53.088Z,12.60
2019-05-09T04:24:23.822Z,12.50
2019-05-09T04:26:58.052Z,12.50
2019-05-09T04:29:28.592Z,12.50
2019-05-09T04:31:58.586Z,12.50
2019-05-09T04:34:28.519Z,12.50
2019-05-09T04:36:58.363Z,12.40
2019-05-09T04:39:28.996Z,12.40
2019-05-09T04:42:05.192Z,12.40
2019-05-09T04:44:33.784Z,12.30
2019-05-09T04:47:04.039Z,12.30
2019-05-09T04:49:39.244Z,12.20
2019-05-09T04:52:07.513Z,12.20
2019-05-09T04:54:38.464Z,12.20
2019-05-09T04:57:08.521Z,12.20
2019-05-09T04:59:38.452Z,12.20
2019-05-09T05:02:10.110Z,12.20
2019-05-09T05:04:40.073Z,12.30
2019-05-09T05:07:09.986Z,12.40
2019-05-09T05:09:39.912Z,12.40
2019-05-09T05:12:09.769Z,12.60
2019-05-09T05:14:39.662Z,12.70
2019-05-09T05:17:11.365Z,12.80
2019-05-09T05:19:41.074Z,12.90
2019-05-09T05:22:18.145Z,13.00
2019-05-09T05:24:59.424Z,13.10
2019-05-09T05:27:28.378Z,13.10
2019-05-09T05:29:58.481Z,13.30
2019-05-09T05:32:42.147Z,13.40
2019-05-09T05:35:31.626Z,13.50
2019-05-09T05:38:01.555Z,13.70
2019-05-09T05:40:33.680Z,13.70
2019-05-09T05:43:03.217Z,13.80
2019-05-09T05:45:37.451Z,13.90
2019-05-09T05:48:08.736Z,13.90
2019-05-09T05:50:38.614Z,13.90
2019-05-09T05:53:08.484Z,13.90
2019-05-09T05:55:38.329Z,13.90
2019-05-09T05:58:08.699Z,13.90
2019-05-09T06:00:38.841Z,13.80
2019-05-09T06:03:09.662Z,13.80
2019-05-09T06:05:39.521Z,13.80
2019-05-09T06:08:09.433Z,13.80
2019-05-09T06:10:39.514Z,13.80
2019-05-09T06:13:09.346Z,13.80
2019-05-09T06:15:39.902Z,13.80
2019-05-09T06:18:09.828Z,13.80
2019-05-09T06:20:39.757Z,13.80
2019-05-09T06:23:09.855Z,13.70
2019-05-09T06:25:39.695Z,13.70
2019-05-09T06:28:09.635Z,13.70
2019-05-09T06:30:41.214Z,13.70
2019-05-09T06:33:11.484Z,13.70
2019-05-09T06:35:41.445Z,13.60
2019-05-09T06:38:11.426Z,13.60
2019-05-09T06:40:42.345Z,13.60
2019-05-09T06:43:29.039Z,13.60
2019-05-09T06:46:10.585Z,13.60
2019-05-09T06:48:41.926Z,13.70
2019-05-09T06:51:11.775Z,13.70
2019-05-09T06:53:41.693Z,13.70
2019-05-09T06:56:11.529Z,13.70
2019-05-09T06:58:41.829Z,13.80
2019-05-09T07:01:18.854Z,13.90
2019-05-09T07:03:53.291Z,13.90
2019-05-09T07:06:24.905Z,14.00
2019-05-09T07:08:58.517Z,14.20
2019-05-09T07:11:28.922Z,14.30
2019-05-09T07:13:58.785Z,14.50
2019-05-09T07:16:29.431Z,14.60
2019-05-09T07:18:59.340Z,14.70
2019-05-09T07:21:48.495Z,14.90
2019-05-09T07:24:19.122Z,15.00
2019-05-09T07:26:49.005Z,15.10
2019-05-09T07:29:18.859Z,15.10
2019-05-09T07:31:50.457Z,15.10
2019-05-09T07:34:22.060Z,15.10
2019-05-09T07:36:51.973Z,15.10
2019-05-09T07:39:21.826Z,15.00
2019-05-09T07:41:51.832Z,15.00
2019-05-09T07:44:21.693Z,15.00
2019-05-09T07:46:59.271Z,15.00
2019-05-09T07:49:29.847Z,15.00
2019-05-09T07:52:06.083Z,15.10
2019-05-09T07:54:31.401Z,15.10
2019-05-09T07:57:01.332Z,15.20
2019-05-09T07:59:31.301Z,15.30
2019-05-09T08:02:01.174Z,15.40
2019-05-09T08:04:31.112Z,15.40
2019-05-09T08:07:00.969Z,15.60
2019-05-09T08:09:30.896Z,15.70
2019-05-09T08:12:00.836Z,15.90
2019-05-09T08:14:30.777Z,16.10
2019-05-09T08:17:00.625Z,16.40
2019-05-09T08:19:30.589Z,16.80
2019-05-09T08:22:00.566Z,17.40
2019-05-09T08:24:30.420Z,17.90
2019-05-09T08:27:00.358Z,18.20
2019-05-09T08:29:30.277Z,18.50
2019-05-09T08:32:00.149Z,18.70
2019-05-09T08:34:30.079Z,18.80
2019-05-09T08:37:00.984Z,19.00
2019-05-09T08:39:30.858Z,19.20
2019-05-09T08:42:00.813Z,19.30
2019-05-09T08:44:31.417Z,19.40
2019-05-09T08:47:01.332Z,19.50
2019-05-09T08:49:32.926Z,19.50
2019-05-09T08:52:14.971Z,19.40
2019-05-09T08:54:48.406Z,19.30
2019-05-09T08:57:18.210Z,19.20
2019-05-09T08:59:50.731Z,19.10
2019-05-09T09:02:22.425Z,18.90
2019-05-09T09:04:52.280Z,18.70
2019-05-09T09:07:22.170Z,18.60
2019-05-09T09:09:52.049Z,18.40
2019-05-09T09:12:30.605Z,18.30
2019-05-09T09:14:54.478Z,18.20
2019-05-09T09:17:24.403Z,18.10
2019-05-09T09:19:54.289Z,18.20
2019-05-09T09:22:24.676Z,18.20
2019-05-09T09:24:54.569Z,18.30
2019-05-09T09:27:24.378Z,18.40
2019-05-09T09:29:54.196Z,18.50
2019-05-09T09:32:24.019Z,18.50
2019-05-09T09:34:53.843Z,18.60
2019-05-09T09:37:24.442Z,18.80
2019-05-09T09:39:54.282Z,19.00
2019-05-09T09:42:24.174Z,19.20
2019-05-09T09:44:54.016Z,19.40
2019-05-09T09:47:23.828Z,19.60
2019-05-09T09:49:55.205Z,19.70
2019-05-09T09:52:29.054Z,19.80
2019-05-09T09:54:58.287Z,19.90
2019-05-09T09:57:28.837Z,20.00
2019-05-09T10:00:00.660Z,20.00
2019-05-09T10:02:32.122Z,20.10
2019-05-09T10:05:01.922Z,20.10
2019-05-09T10:07:31.722Z,20.10
2019-05-09T10:10:01.566Z,20.20
2019-05-09T10:12:31.528Z,20.20
2019-05-09T10:15:08.198Z,20.30
2019-05-09T10:17:51.462Z,20.40
2019-05-09T10:20:32.328Z,20.50
2019-05-09T10:23:11.207Z,20.70
2019-05-09T10:25:33.814Z,20.80
2019-05-09T10:28:03.685Z,21.00
2019-05-09T10:30:38.237Z,21.10
2019-05-09T10:33:09.148Z,21.20
2019-05-09T10:35:39.439Z,21.30
2019-05-09T10:38:09.959Z,21.30
2019-05-09T10:40:40.528Z,21.40
2019-05-09T10:43:35.569Z,21.40
2019-05-09T10:46:19.315Z,21.40
2019-05-09T10:48:51.074Z,21.40
2019-05-09T10:51:21.129Z,21.40
2019-05-09T10:53:50.941Z,21.30
2019-05-09T10:56:20.845Z,21.30
2019-05-09T10:58:50.783Z,21.30
2019-05-09T11:01:20.735Z,21.20
2019-05-09T11:03:50.606Z,21.10
2019-05-09T11:06:20.497Z,21.00
2019-05-09T11:08:50.312Z,21.00
2019-05-09T11:11:20.165Z,20.90
2019-05-09T11:13:50.021Z,20.80
2019-05-09T11:16:19.842Z,20.80
2019-05-09T11:18:49.650Z,20.80
2019-05-09T11:21:19.670Z,20.90
2019-05-09T11:23:49.556Z,20.90
2019-05-09T11:26:19.376Z,21.00
2019-05-09T11:28:49.198Z,21.00
2019-05-09T11:31:19.968Z,21.10
2019-05-09T11:33:50.039Z,21.10
2019-05-09T11:36:21.143Z,21.10
2019-05-09T11:38:51.443Z,21.10
2019-05-09T11:41:21.260Z,21.00
2019-05-09T11:43:51.210Z,21.00
2019-05-09T11:46:22.073Z,20.90
2019-05-09T11:48:52.943Z,20.80
2019-05-09T11:51:22.964Z,20.70
2019-05-09T11:53:52.878Z,20.70
2019-05-09T11:56:22.754Z,20.80
2019-05-09T11:58:52.655Z,20.90
2019-05-09T12:01:22.530Z,21.00
2019-05-09T12:03:52.631Z,21.00
2019-05-09T12:06:22.793Z,21.00
2019-05-09T12:08:52.686Z,21.10
2019-05-09T12:11:22.588Z,21.10
2019-05-09T12:13:52.469Z,21.10
2019-05-09T12:16:22.285Z,21.00
2019-05-09T12:18:52.894Z,20.90
2019-05-09T12:21:22.694Z,20.90
2019-05-09T12:23:52.512Z,20.80
2019-05-09T12:26:22.333Z,20.70
2019-05-09T12:28:52.169Z,20.50
2019-05-09T12:31:22.158Z,20.30
2019-05-09T12:33:53.004Z,20.10
2019-05-09T12:36:22.859Z,20.00
2019-05-09T12:38:52.772Z,19.90
2019-05-09T12:41:22.634Z,19.70
2019-05-09T12:43:52.514Z,19.60
2019-05-09T12:46:22.421Z,19.60
2019-05-09T12:48:52.312Z,19.60
2019-05-09T12:51:22.217Z,19.60
2019-05-09T12:53:52.017Z,19.60
2019-05-09T12:56:21.898Z,19.70
2019-05-09T12:58:52.477Z,19.80
2019-05-09T13:01:22.597Z,20.00
2019-05-09T13:03:52.604Z,20.10
2019-05-09T13:06:22.529Z,20.20
2019-05-09T13:08:53.160Z,20.40
2019-05-09T13:11:23.058Z,20.40
2019-05-09T13:13:53.081Z,20.60
2019-05-09T13:16:39.776Z,20.70
2019-05-09T13:19:04.121Z,20.80
2019-05-09T13:21:34.291Z,20.90
2019-05-09T13:24:04.295Z,21.00
2019-05-09T13:26:34.093Z,21.00
2019-05-09T13:29:04.706Z,21.00
2019-05-09T13:31:39.317Z,20.90
2019-05-09T13:34:08.151Z,20.90
2019-05-09T13:36:38.273Z,20.90
2019-05-09T13:39:10.568Z,20.90
2019-05-09T13:41:40.602Z,20.80
2019-05-09T13:44:13.982Z,20.80
2019-05-09T13:46:42.609Z,20.80
2019-05-09T13:49:15.508Z,20.80
2019-05-09T13:51:51.250Z,20.80
2019-05-09T13:54:15.570Z,20.70
2019-05-09T13:56:50.385Z,20.60
2019-05-09T13:59:18.637Z,20.60
2019-05-09T14:01:49.581Z,20.50
2019-05-09T14:04:19.415Z,20.40
2019-05-09T14:06:49.332Z,20.30
2019-05-09T14:09:20.072Z,20.20
2019-05-09T14:11:50.000Z,20.10
2019-05-09T14:14:19.911Z,20.00
2019-05-09T14:16:49.729Z,19.80
2019-05-09T14:19:31.460Z,19.70
2019-05-09T14:21:52.114Z,19.70
2019-05-09T14:24:22.030Z,19.60
2019-05-09T14:26:52.028Z,19.50
2019-05-09T14:29:22.026Z,19.40
2019-05-09T14:31:51.951Z,19.30
2019-05-09T14:34:21.755Z,19.30
2019-05-09T14:36:51.613Z,19.20
2019-05-09T14:39:21.505Z,19.10
2019-05-09T14:41:51.322Z,19.10
2019-05-09T14:44:21.159Z,19.10
2019-05-09T14:46:50.998Z,19.00
2019-05-09T14:49:20.906Z,19.00
2019-05-09T14:51:50.790Z,19.00
2019-05-09T14:54:20.754Z,19.00
2019-05-09T14:56:50.915Z,19.00
2019-05-09T14:59:20.809Z,19.00
2019-05-09T15:01:50.846Z,19.00
2019-05-09T15:04:20.684Z,19.10
2019-05-09T15:06:51.471Z,19.10
2019-05-09T15:09:22.155Z,19.10
2019-05-09T15:11:52.008Z,19.10
2019-05-09T15:14:21.833Z,19.20
2019-05-09T15:16:51.645Z,19.20
2019-05-09T15:19:21.479Z,19.10
2019-05-09T15:21:51.540Z,19.10
2019-05-09T15:24:21.397Z,19.00
2019-05-09T15:26:51.200Z,18.90
2019-05-09T15:29:21.018Z,18.70
2019-05-09T15:31:54.119Z,18.50
2019-05-09T15:34:23.412Z,18.40
2019-05-09T15:36:53.212Z,18.20
2019-05-09T15:39:23.102Z,17.90
2019-05-09T15:41:52.978Z,17.50
2019-05-09T15:44:22.780Z,17.20
2019-05-09T15:46:59.063Z,16.90
2019-05-09T15:49:28.953Z,16.60
2019-05-09T15:51:58.938Z,16.30
2019-05-09T15:54:29.444Z,16.00
2019-05-09T15:56:59.374Z,15.90
2019-05-09T15:59:29.945Z,15.70
2019-05-09T16:01:59.838Z,15.60
2019-05-09T16:04:29.638Z,15.60
2019-05-09T16:06:59.462Z,15.50
2019-05-09T16:09:30.314Z,15.50
2019-05-09T16:12:00.164Z,15.50
2019-05-09T16:14:30.098Z,15.50
2019-05-09T16:17:01.040Z,15.50
2019-05-09T16:19:30.853Z,15.50
2019-05-09T16:22:02.080Z,15.50
2019-05-09T16:24:32.142Z,15.50
2019-05-09T16:27:01.953Z,15.50
2019-05-09T16:29:32.440Z,15.50
2019-05-09T16:32:02.321Z,15.50
2019-05-09T16:34:32.138Z,15.50
2019-05-09T16:37:02.208Z,15.50
2019-05-09T16:39:31.990Z,15.40
2019-05-09T16:42:01.797Z,15.40
2019-05-09T16:44:31.664Z,15.40
2019-05-09T16:47:01.485Z,15.40
2019-05-09T16:49:31.410Z,15.40
2019-05-09T16:52:01.309Z,15.30
2019-05-09T16:54:32.837Z,15.30
2019-05-09T16:57:02.625Z,15.20
2019-05-09T16:59:33.142Z,15.20
2019-05-09T17:02:17.852Z,15.20
2019-05-09T17:04:34.634Z,15.10
2019-05-09T17:07:05.288Z,15.10
2019-05-09T17:09:38.229Z,15.10
2019-05-09T17:12:08.396Z,15.00
2019-05-09T17:14:38.266Z,15.00
2019-05-09T17:17:08.506Z,15.00
2019-05-09T17:19:39.403Z,14.90
2019-05-09T17:22:11.588Z,14.90
2019-05-09T17:24:41.873Z,14.90
2019-05-09T17:27:11.689Z,14.90
2019-05-09T17:29:41.530Z,14.90
2019-05-09T17:32:11.382Z,14.80
2019-05-09T17:34:42.452Z,14.80
2019-05-09T17:37:13.440Z,14.80
2019-05-09T17:39:43.318Z,14.80
2019-05-09T17:42:13.133Z,14.80
2019-05-09T17:44:43.637Z,14.90
2019-05-09T17:47:13.593Z,14.90
2019-05-09T17:49:43.501Z,14.90
2019-05-09T17:52:13.283Z,14.90
2019-05-09T17:54:43.234Z,14.90
2019-05-09T17:57:13.585Z,14.90
2019-05-09T17:59:43.820Z,14.90
2019-05-09T18:02:13.636Z,14.90
2019-05-09T18:04:43.539Z,14.80
2019-05-09T18:07:13.358Z,14.80
2019-05-09T18:09:43.181Z,14.80
2019-05-09T18:12:12.968Z,14.80
2019-05-09T18:14:42.874Z,14.80
2019-05-09T18:17:12.682Z,14.70
2019-05-09T18:19:42.561Z,14.70
2019-05-09T18:22:12.357Z,14.70
2019-05-09T18:24:42.129Z,14.70
2019-05-09T18:27:12.250Z,14.60
2019-05-09T18:29:42.138Z,14.60
2019-05-09T18:32:27.526Z,14.60
2019-05-09T18:35:05.015Z,14.60
2019-05-09T18:37:35.375Z,14.60
2019-05-09T18:40:08.299Z,14.60
2019-05-09T18:42:38.152Z,14.60
2019-05-09T18:45:09.172Z,14.60
2019-05-09T18:47:39.051Z,14.60
2019-05-09T18:50:10.534Z,14.50
2019-05-09T18:52:40.354Z,14.50
2019-05-09T18:55:11.295Z,14.50
2019-05-09T18:57:41.190Z,14.50
2019-05-09T19:00:13.442Z,14.50
2019-05-09T19:02:43.318Z,14.50
2019-05-09T19:05:13.945Z,14.50
2019-05-09T19:07:43.714Z,14.50
2019-05-09T19:10:14.237Z,14.40
2019-05-09T19:12:44.114Z,14.50
2019-05-09T19:15:21.138Z,14.40
2019-05-09T19:18:09.251Z,14.40
2019-05-09T19:20:40.738Z,14.40
2019-05-09T19:23:10.562Z,14.40
2019-05-09T19:25:40.492Z,14.40
2019-05-09T19:28:10.320Z,14.30
2019-05-09T19:30:40.150Z,14.30
2019-05-09T19:33:09.945Z,14.30
2019-05-09T19:35:39.835Z,14.20
2019-05-09T19:38:09.603Z,14.30
2019-05-09T19:40:39.542Z,14.20
2019-05-09T19:43:09.509Z,14.20
2019-05-09T19:45:39.520Z,14.20
2019-05-09T19:48:09.328Z,14.20
2019-05-09T19:50:39.098Z,14.20
2019-05-09T19:53:10.246Z,14.20
2019-05-09T19:55:40.325Z,14.20
2019-05-09T19:58:10.273Z,14.20
2019-05-09T20:00:40.278Z,14.20
2019-05-09T20:03:10.177Z,14.20
2019-05-09T20:05:39.951Z,14.20
2019-05-09T20:08:09.804Z,14.10
2019-05-09T20:10:57.759Z,14.10
2019-05-09T20:13:29.222Z,14.10
2019-05-09T20:15:59.038Z,14.10
2019-05-09T20:18:28.834Z,14.10
2019-05-09T20:20:58.666Z,14.10
2019-05-09T20:23:28.570Z,14.10
2019-05-09T20:25:58.398Z,14.10
2019-05-09T20:28:29.261Z,14.10
2019-05-09T20:30:59.365Z,14.20
2019-05-09T20:33:29.283Z,14.10
2019-05-09T20:35:59.030Z,14.10
2019-05-09T20:38:29.146Z,14.10
2019-05-09T20:40:59.280Z,14.10
2019-05-09T20:43:29.245Z,14.10
2019-05-09T20:45:59.203Z,14.10
2019-05-09T20:48:29.367Z,14.10
2019-05-09T20:50:59.317Z,14.10
2019-05-09T20:53:29.272Z,14.10
2019-05-09T20:56:00.015Z,14.10
2019-05-09T20:58:29.982Z,14.10
2019-05-09T21:00:59.932Z,14.10
2019-05-09T21:03:30.126Z,14.10
2019-05-09T21:06:00.134Z,14.10
2019-05-09T21:08:30.138Z,14.10
2019-05-09T21:11:00.114Z,14.10
2019-05-09T21:13:30.065Z,14.10
2019-05-09T21:16:00.095Z,14.10
2019-05-09T21:18:30.208Z,14.00
2019-05-09T21:21:00.226Z,14.00
2019-05-09T21:23:30.214Z,14.00
2019-05-09T21:26:01.257Z,14.00
2019-05-09T21:28:32.192Z,14.00
2019-05-09T21:31:02.198Z,14.00
2019-05-09T21:33:32.206Z,13.90
2019-05-09T21:36:02.384Z,13.90
2019-05-09T21:38:32.159Z,13.90
2019-05-09T21:41:02.079Z,13.90
2019-05-09T21:43:31.902Z,13.90
2019-05-09T21:46:01.735Z,13.80
2019-05-09T21:48:31.624Z,13.80
2019-05-09T21:51:01.542Z,13.70
2019-05-09T21:53:40.548Z,13.70
2019-05-09T21:56:02.909Z,13.70
2019-05-09T21:58:32.725Z,13.60
2019-05-09T22:01:03.093Z,13.60
2019-05-09T22:03:33.022Z,13.50
2019-05-09T22:06:02.777Z,13.50
2019-05-09T22:08:32.673Z,13.40
2019-05-09T22:11:02.545Z,13.40
2019-05-09T22:13:32.348Z,13.30
2019-05-09T22:16:02.409Z,13.30
2019-05-09T22:18:32.234Z,13.20
2019-05-09T22:21:02.198Z,13.20
2019-05-09T22:23:32.094Z,13.20
2019-05-09T22:26:01.957Z,13.20
2019-05-09T22:28:31.769Z,13.10
2019-05-09T22:31:01.573Z,13.10
2019-05-09T22:33:31.447Z,13.10
2019-05-09T22:36:01.357Z,13.10
2019-05-09T22:38:32.102Z,13.10
2019-05-09T22:41:02.018Z,13.10
2019-05-09T22:43:31.877Z,13.10
2019-05-09T22:46:01.840Z,13.10
2019-05-09T22:48:31.661Z,13.00
2019-05-09T22:51:01.496Z,13.00
2019-05-09T22:53:31.533Z,13.10
2019-05-09T22:56:01.437Z,13.00
2019-05-09T22:58:31.332Z,13.00
2019-05-09T23:01:01.257Z,13.00
2019-05-09T23:03:31.808Z,13.00
2019-05-09T23:06:01.631Z,13.00
2019-05-09T23:08:31.445Z,13.00
2019-05-09T23:11:01.531Z,13.00
2019-05-09T23:13:33.014Z,13.10
2019-05-09T23:16:02.825Z,13.10
2019-05-09T23:18:33.357Z,13.10
2019-05-09T23:21:03.165Z,13.10
2019-05-09T23:23:34.770Z,13.10
2019-05-09T23:26:05.601Z,13.10
2019-05-09T23:28:35.437Z,13.10
2019-05-09T23:31:06.938Z,13.10
2019-05-09T23:33:38.418Z,13.10
2019-05-09T23:36:09.024Z,13.10
2019-05-09T23:38:56.716Z,13.10
2019-05-09T23:41:26.489Z,13.10
2019-05-09T23:43:56.260Z,13.10
2019-05-09T23:46:26.126Z,13.10
2019-05-09T23:48:56.097Z,13.20
2019-05-09T23:51:27.637Z,13.20
2019-05-09T23:53:56.767Z,13.20
2019-05-09T23:56:44.401Z,13.20
2019-05-09T23:59:31.985Z,13.30
